createdAt,value
2023-04-28T00:00:02.356Z,100903.60
2023-04-28T00:02:59.687Z,100900.80
2023-04-28T00:05:34.765Z,100902.40
2023-04-28T00:08:09.740Z,100903.00
2023-04-28T00:10:44.090Z,100905.00
2023-04-28T00:13:18.245Z,100900.00
2023-04-28T00:15:54.270Z,100898.60
2023-04-28T00:18:29.068Z,100893.40
2023-04-28T00:21:03.415Z,100898.80
2023-04-28T00:23:37.719Z,100884.80
2023-04-28T00:26:12.476Z,100888.00
2023-04-28T00:28:47.608Z,100891.40
2023-04-28T00:31:22.821Z,100892.60
2023-04-28T00:33:59.820Z,100888.80
2023-04-28T00:36:36.019Z,100889.80
2023-04-28T00:39:12.127Z,100888.20
2023-04-28T00:41:46.294Z,100888.00
2023-04-28T00:44:20.451Z,100880.60
2023-04-28T00:46:54.781Z,100880.00
2023-04-28T00:49:29.152Z,100873.00
2023-04-28T00:52:08.284Z,100878.60
2023-04-28T00:54:42.881Z,100879.40
2023-04-28T00:57:17.055Z,100873.40
2023-04-28T00:59:51.461Z,100869.40
2023-04-28T01:02:29.499Z,100867.00
2023-04-28T01:05:05.242Z,100866.20
2023-04-28T01:07:40.619Z,100860.00
2023-04-28T01:10:16.084Z,100859.20
2023-04-28T01:12:50.381Z,100864.60
2023-04-28T01:15:25.097Z,100863.00
2023-04-28T01:18:01.638Z,100865.20
2023-04-28T01:20:36.347Z,100859.20
2023-04-28T01:23:18.774Z,100865.20
2023-04-28T01:25:53.151Z,100861.80
2023-04-28T01:28:27.304Z,100858.60
2023-04-28T01:31:01.428Z,100854.00
2023-04-28T01:33:37.045Z,100848.20
2023-04-28T01:36:12.464Z,100856.20
2023-04-28T01:38:46.635Z,100846.60
2023-04-28T01:41:21.242Z,100849.80
2023-04-28T01:43:55.541Z,100846.80
2023-04-28T01:46:29.745Z,100842.60
2023-04-28T01:49:05.804Z,100836.40
2023-04-28T01:51:42.869Z,100830.60
2023-04-28T01:54:18.653Z,100834.40
2023-04-28T01:56:53.167Z,100834.80
2023-04-28T01:59:27.819Z,100829.80
2023-04-28T02:02:02.119Z,100829.00
2023-04-28T02:04:36.544Z,100832.20
2023-04-28T02:07:11.092Z,100831.60
2023-04-28T02:09:45.241Z,100837.60
2023-04-28T02:12:19.470Z,100834.40
2023-04-28T02:14:54.110Z,100824.60
2023-04-28T02:17:28.332Z,100824.60
2023-04-28T02:20:02.547Z,100819.20
2023-04-28T02:22:36.797Z,100833.00
2023-04-28T02:25:14.172Z,100827.00
2023-04-28T02:27:48.560Z,100825.20
2023-04-28T02:30:23.248Z,100827.00
2023-04-28T02:32:57.625Z,100829.40
2023-04-28T02:35:33.065Z,100827.00
2023-04-28T02:38:07.710Z,100825.40
2023-04-28T02:40:43.791Z,100820.60
2023-04-28T02:43:17.999Z,100825.60
2023-04-28T02:45:52.528Z,100822.20
2023-04-28T02:48:27.005Z,100825.00
2023-04-28T02:51:01.249Z,100823.20
2023-04-28T02:53:35.517Z,100819.40
2023-04-28T02:56:10.316Z,100818.20
2023-04-28T02:58:47.095Z,100817.20
2023-04-28T03:01:21.628Z,100818.80
2023-04-28T03:03:56.114Z,100813.40
2023-04-28T03:06:31.832Z,100810.40
2023-04-28T03:09:07.181Z,100811.00
2023-04-28T03:11:41.516Z,100808.20
2023-04-28T03:14:16.498Z,100804.80
2023-04-28T03:16:51.265Z,100802.20
2023-04-28T03:19:26.952Z,100799.60
2023-04-28T03:22:01.301Z,100800.20
2023-04-28T03:24:35.538Z,100801.60
2023-04-28T03:27:09.766Z,100799.40
2023-04-28T03:29:44.218Z,100802.80
2023-04-28T03:32:19.222Z,100802.80
2023-04-28T03:34:54.040Z,100810.20
2023-04-28T03:37:28.350Z,100807.00
2023-04-28T03:40:03.388Z,100802.20
2023-04-28T03:42:43.385Z,100804.40
2023-04-28T03:45:20.714Z,100809.60
2023-04-28T03:47:55.087Z,100810.40
2023-04-28T03:50:29.345Z,100807.60
2023-04-28T03:53:05.117Z,100805.40
2023-04-28T03:55:39.993Z,100807.60
2023-04-28T03:58:14.276Z,100801.60
2023-04-28T04:00:48.796Z,100802.80
2023-04-28T04:03:26.620Z,100808.00
2023-04-28T04:06:03.724Z,100799.00
2023-04-28T04:08:38.338Z,100801.80
2023-04-28T04:11:12.574Z,100799.00
2023-04-28T04:13:47.212Z,100802.40
2023-04-28T04:16:23.209Z,100803.60
2023-04-28T04:19:00.077Z,100802.00
2023-04-28T04:21:43.339Z,100801.80
2023-04-28T04:24:17.736Z,100799.60
2023-04-28T04:26:52.221Z,100796.60
2023-04-28T04:29:37.441Z,100795.20
2023-04-28T04:32:16.382Z,100793.20
2023-04-28T04:34:50.647Z,100789.20
2023-04-28T04:37:25.836Z,100783.00
2023-04-28T04:40:04.869Z,100779.40
2023-04-28T04:42:43.318Z,100771.00
2023-04-28T04:45:24.822Z,100777.00
2023-04-28T04:47:59.112Z,100769.20
2023-04-28T04:50:33.964Z,100765.80
2023-04-28T04:53:11.717Z,100768.60
2023-04-28T04:55:48.635Z,100772.00
2023-04-28T04:58:23.652Z,100769.40
2023-04-28T05:01:20.604Z,100765.80
2023-04-28T05:03:55.004Z,100760.60
2023-04-28T05:06:30.410Z,100763.20
2023-04-28T05:09:05.657Z,100753.80
2023-04-28T05:11:40.048Z,100747.80
2023-04-28T05:14:14.663Z,100748.40
2023-04-28T05:16:49.309Z,100753.80
2023-04-28T05:19:29.341Z,100747.80
2023-04-28T05:22:03.673Z,100752.00
2023-04-28T05:24:38.223Z,100755.20
2023-04-28T05:27:12.615Z,100749.20
2023-04-28T05:29:47.291Z,100752.60
2023-04-28T05:32:21.810Z,100756.60
2023-04-28T05:34:56.229Z,100755.00
2023-04-28T05:37:30.907Z,100756.80
2023-04-28T05:40:06.128Z,100748.80
2023-04-28T05:42:41.221Z,100747.20
2023-04-28T05:45:16.884Z,100743.40
2023-04-28T05:47:51.675Z,100745.80
2023-04-28T05:50:26.213Z,100741.80
2023-04-28T05:53:00.456Z,100743.20
2023-04-28T05:55:36.527Z,100739.80
2023-04-28T05:58:11.295Z,100732.60
2023-04-28T06:00:45.617Z,100730.60
2023-04-28T06:03:20.155Z,100725.00
2023-04-28T06:05:55.474Z,100726.80
2023-04-28T06:08:30.152Z,100725.80
2023-04-28T06:11:04.454Z,100727.80
2023-04-28T06:13:38.681Z,100725.20
2023-04-28T06:16:13.665Z,100718.80
2023-04-28T06:18:49.690Z,100719.20
2023-04-28T06:21:25.067Z,100715.20
2023-04-28T06:23:59.262Z,100705.00
2023-04-28T06:26:34.097Z,100704.40
2023-04-28T06:29:09.813Z,100705.80
2023-04-28T06:31:44.139Z,100707.40
2023-04-28T06:34:18.805Z,100702.40
2023-04-28T06:36:53.304Z,100699.60
2023-04-28T06:39:28.130Z,100695.80
2023-04-28T06:42:03.264Z,100694.80
2023-04-28T06:44:40.442Z,100693.80
2023-04-28T06:47:15.217Z,100696.60
2023-04-28T06:49:50.392Z,100692.80
2023-04-28T06:52:33.132Z,100690.60
2023-04-28T06:55:18.488Z,100689.40
2023-04-28T06:57:53.200Z,100686.00
2023-04-28T07:00:28.047Z,100690.60
2023-04-28T07:03:03.383Z,100687.20
2023-04-28T07:05:38.470Z,100683.20
2023-04-28T07:08:13.394Z,100685.20
2023-04-28T07:10:49.707Z,100677.00
2023-04-28T07:13:24.216Z,100677.80
2023-04-28T07:15:59.934Z,100675.40
2023-04-28T07:18:36.550Z,100668.20
2023-04-28T07:21:11.362Z,100662.00
2023-04-28T07:23:46.355Z,100658.80
2023-04-28T07:26:20.920Z,100658.00
2023-04-28T07:28:55.563Z,100649.60
2023-04-28T07:31:30.579Z,100645.40
2023-04-28T07:34:06.697Z,100644.60
2023-04-28T07:36:42.084Z,100635.40
2023-04-28T07:39:18.390Z,100636.00
2023-04-28T07:41:56.791Z,100633.40
2023-04-28T07:44:31.684Z,100623.60
2023-04-28T07:47:06.188Z,100621.20
2023-04-28T07:49:41.203Z,100617.40
2023-04-28T07:52:16.406Z,100612.20
2023-04-28T07:54:50.955Z,100612.40
2023-04-28T07:57:25.960Z,100606.60
2023-04-28T08:00:00.748Z,100607.20
2023-04-28T08:02:35.758Z,100603.20
2023-04-28T08:05:11.519Z,100596.60
2023-04-28T08:07:46.912Z,100596.00
2023-04-28T08:10:21.415Z,100591.00
2023-04-28T08:12:59.835Z,100588.40
2023-04-28T08:15:35.014Z,100594.00
2023-04-28T08:18:10.765Z,100590.20
2023-04-28T08:20:45.184Z,100591.40
2023-04-28T08:23:20.442Z,100589.20
2023-04-28T08:25:54.980Z,100581.60
2023-04-28T08:28:30.666Z,100581.80
2023-04-28T08:31:05.667Z,100579.40
2023-04-28T08:33:40.066Z,100575.60
2023-04-28T08:36:15.155Z,100574.80
2023-04-28T08:38:49.708Z,100564.80
2023-04-28T08:41:26.422Z,100565.00
2023-04-28T08:44:02.582Z,100561.80
2023-04-28T08:46:41.873Z,100558.20
2023-04-28T08:49:25.063Z,100552.40
2023-04-28T08:52:02.566Z,100544.40
2023-04-28T08:54:42.381Z,100549.80
2023-04-28T08:57:18.631Z,100543.00
2023-04-28T08:59:53.764Z,100547.20
2023-04-28T09:02:28.124Z,100545.20
2023-04-28T09:05:03.557Z,100547.20
2023-04-28T09:07:38.574Z,100542.60
2023-04-28T09:10:24.842Z,100536.80
2023-04-28T09:12:59.982Z,100529.40
2023-04-28T09:15:37.794Z,100528.60
2023-04-28T09:18:17.715Z,100517.40
2023-04-28T09:20:52.422Z,100516.00
2023-04-28T09:23:27.591Z,100511.60
2023-04-28T09:26:05.561Z,100518.00
2023-04-28T09:28:41.272Z,100514.40
2023-04-28T09:31:29.417Z,100512.60
2023-04-28T09:34:04.124Z,100504.80
2023-04-28T09:36:40.022Z,100504.60
2023-04-28T09:39:14.657Z,100495.40
2023-04-28T09:41:51.185Z,100491.40
2023-04-28T09:44:25.795Z,100485.60
2023-04-28T09:47:01.288Z,100482.00
2023-04-28T09:49:55.044Z,100470.60
2023-04-28T09:52:29.775Z,100471.40
2023-04-28T09:55:08.891Z,100471.60
2023-04-28T09:57:47.904Z,100462.60
2023-04-28T10:00:26.527Z,100460.00
2023-04-28T10:03:02.734Z,100459.40
2023-04-28T10:05:39.941Z,100452.20
2023-04-28T10:08:16.066Z,100449.60
2023-04-28T10:10:53.216Z,100445.60
2023-04-28T10:13:28.840Z,100436.20
2023-04-28T10:16:05.620Z,100435.80
2023-04-28T10:18:40.486Z,100430.60
2023-04-28T10:21:20.740Z,100425.00
2023-04-28T10:24:19.686Z,100418.20
2023-04-28T10:27:13.183Z,100409.80
2023-04-28T10:29:48.643Z,100414.80
2023-04-28T10:32:31.980Z,100410.40
2023-04-28T10:35:44.592Z,100400.80
2023-04-28T10:38:22.285Z,100399.20
2023-04-28T10:41:01.721Z,100393.80
2023-04-28T10:43:41.989Z,100399.60
2023-04-28T10:46:16.752Z,100389.60
2023-04-28T10:49:11.211Z,100386.00
2023-04-28T10:51:46.006Z,100380.20
2023-04-28T10:54:26.028Z,100380.60
2023-04-28T10:57:24.182Z,100376.20
2023-04-28T11:00:32.425Z,100369.40
2023-04-28T11:03:07.876Z,100371.20
2023-04-28T11:06:02.529Z,100371.20
2023-04-28T11:08:40.053Z,100368.80
2023-04-28T11:11:30.161Z,100369.60
2023-04-28T11:14:35.126Z,100366.00
2023-04-28T11:17:17.362Z,100366.80
2023-04-28T11:19:52.282Z,100364.40
2023-04-28T11:22:27.758Z,100361.00
2023-04-28T11:25:04.107Z,100355.80
2023-04-28T11:27:38.844Z,100364.60
2023-04-28T11:30:29.365Z,100359.80
2023-04-28T11:33:04.156Z,100354.40
2023-04-28T11:35:47.080Z,100351.60
2023-04-28T11:44:24.735Z,100339.40
2023-04-28T11:47:02.028Z,100344.80
2023-04-28T11:49:45.998Z,100341.20
2023-04-28T11:52:21.365Z,100337.60
2023-04-28T11:55:02.551Z,100327.40
2023-04-28T11:57:37.262Z,100318.80
2023-04-28T12:00:23.334Z,100319.40
2023-04-28T12:02:58.635Z,100308.00
2023-04-28T12:05:35.718Z,100309.80
2023-04-28T12:08:11.478Z,100303.80
2023-04-28T12:11:07.340Z,100312.00
2023-04-28T12:13:42.582Z,100306.20
2023-04-28T12:16:37.694Z,100307.40
2023-04-28T12:19:12.857Z,100305.20
2023-04-28T12:22:00.468Z,100308.00
2023-04-28T12:24:36.350Z,100301.80
2023-04-28T12:27:25.308Z,100295.80
2023-04-28T12:30:00.056Z,100292.80
2023-04-28T12:32:45.413Z,100287.60
2023-04-28T12:35:22.602Z,100292.80
2023-04-28T12:37:58.707Z,100295.60
2023-04-28T12:40:33.572Z,100286.20
2023-04-28T12:43:08.213Z,100285.20
2023-04-28T12:45:42.791Z,100283.40
2023-04-28T12:48:17.284Z,100274.80
2023-04-28T12:50:53.605Z,100280.00
2023-04-28T12:53:28.185Z,100280.80
2023-04-28T12:56:03.843Z,100279.20
2023-04-28T12:58:38.689Z,100277.80
2023-04-28T13:01:13.697Z,100276.20
2023-04-28T13:03:48.781Z,100265.80
2023-04-28T13:06:23.704Z,100262.40
2023-04-28T13:08:58.309Z,100251.60
2023-04-28T13:11:33.447Z,100252.00
2023-04-28T13:14:08.158Z,100250.80
2023-04-28T13:16:43.466Z,100250.40
2023-04-28T13:19:18.483Z,100254.00
2023-04-28T13:21:52.921Z,100252.20
2023-04-28T13:24:27.739Z,100244.40
2023-04-28T13:27:02.328Z,100237.00
2023-04-28T13:29:36.649Z,100243.20
2023-04-28T13:32:11.914Z,100242.20
2023-04-28T13:34:46.834Z,100236.60
2023-04-28T13:37:21.553Z,100230.40
2023-04-28T13:39:55.980Z,100229.00
2023-04-28T13:42:33.695Z,100215.60
2023-04-28T13:45:09.232Z,100216.60
2023-04-28T13:47:44.500Z,100213.20
2023-04-28T13:50:19.020Z,100209.00
2023-04-28T13:52:54.210Z,100211.60
2023-04-28T13:55:28.863Z,100207.60
2023-04-28T13:58:05.018Z,100203.20
2023-04-28T14:00:41.004Z,100203.60
2023-04-28T14:03:15.633Z,100208.80
2023-04-28T14:05:50.430Z,100200.00
2023-04-28T14:08:27.115Z,100202.60
2023-04-28T14:11:02.407Z,100198.40
2023-04-28T14:13:36.780Z,100197.40
2023-04-28T14:16:11.839Z,100190.80
2023-04-28T14:18:46.096Z,100191.80
2023-04-28T14:21:20.356Z,100192.40
2023-04-28T14:23:55.096Z,100182.40
2023-04-28T14:26:30.247Z,100187.20
2023-04-28T14:29:06.443Z,100187.00
2023-04-28T14:31:40.794Z,100176.80
2023-04-28T14:34:15.269Z,100175.00
2023-04-28T14:36:49.697Z,100168.20
2023-04-28T14:39:24.398Z,100168.80
2023-04-28T14:41:59.295Z,100167.00
2023-04-28T14:44:34.107Z,100167.20
2023-04-28T14:47:08.528Z,100166.40
2023-04-28T14:49:42.829Z,100168.20
2023-04-28T14:52:17.977Z,100168.40
2023-04-28T14:54:52.988Z,100165.80
2023-04-28T14:57:28.209Z,100165.60
2023-04-28T15:00:03.867Z,100167.00
2023-04-28T15:02:38.920Z,100167.40
2023-04-28T15:05:13.808Z,100165.60
2023-04-28T15:07:48.422Z,100163.80
2023-04-28T15:10:22.645Z,100166.60
2023-04-28T15:12:57.225Z,100164.00
2023-04-28T15:15:32.060Z,100164.20
2023-04-28T15:18:06.473Z,100157.00
2023-04-28T15:20:41.121Z,100162.20
2023-04-28T15:23:15.362Z,100162.00
2023-04-28T15:25:52.887Z,100153.20
2023-04-28T15:28:27.392Z,100147.60
2023-04-28T15:31:02.244Z,100147.20
2023-04-28T15:33:36.724Z,100145.60
2023-04-28T15:36:11.870Z,100148.80
2023-04-28T15:38:46.164Z,100147.20
2023-04-28T15:41:20.959Z,100141.80
2023-04-28T15:43:56.204Z,100145.60
2023-04-28T15:46:30.920Z,100142.00
2023-04-28T15:49:05.678Z,100142.00
2023-04-28T15:51:40.111Z,100139.00
2023-04-28T15:54:14.594Z,100140.40
2023-04-28T15:56:48.861Z,100136.60
2023-04-28T15:59:24.569Z,100138.80
2023-04-28T16:01:59.368Z,100139.60
2023-04-28T16:04:34.363Z,100133.80
2023-04-28T16:07:09.444Z,100133.60
2023-04-28T16:09:45.233Z,100129.20
2023-04-28T16:12:19.507Z,100132.40
2023-04-28T16:14:56.061Z,100132.00
2023-04-28T16:17:30.893Z,100133.60
2023-04-28T16:20:06.165Z,100129.40
2023-04-28T16:22:43.396Z,100129.60
2023-04-28T16:25:17.985Z,100126.80
2023-04-28T16:27:52.218Z,100127.80
2023-04-28T16:30:27.627Z,100131.20
2023-04-28T16:33:01.979Z,100127.00
2023-04-28T16:35:36.914Z,100121.40
2023-04-28T16:38:11.997Z,100117.00
2023-04-28T16:40:46.310Z,100117.20
2023-04-28T16:43:21.193Z,100114.00
2023-04-28T16:45:55.630Z,100112.20
2023-04-28T16:48:30.716Z,100113.40
2023-04-28T16:51:08.327Z,100115.20
2023-04-28T16:53:42.501Z,100108.20
2023-04-28T16:56:17.214Z,100109.80
2023-04-28T16:58:51.680Z,100113.20
2023-04-28T17:01:26.735Z,100110.60
2023-04-28T17:04:03.107Z,100109.40
2023-04-28T17:06:37.490Z,100113.00
2023-04-28T17:09:12.323Z,100112.20
2023-04-28T17:11:47.421Z,100112.80
2023-04-28T17:14:22.345Z,100103.00
2023-04-28T17:16:56.968Z,100106.60
2023-04-28T17:19:32.836Z,100104.80
2023-04-28T17:22:07.364Z,100102.80
2023-04-28T17:24:42.424Z,100111.00
2023-04-28T17:27:16.877Z,100108.80
2023-04-28T17:29:52.068Z,100105.80
2023-04-28T17:32:27.535Z,100106.60
2023-04-28T17:35:02.090Z,100098.80
2023-04-28T17:37:37.426Z,100099.20
2023-04-28T17:40:14.935Z,100099.20
2023-04-28T17:42:49.416Z,100096.00
2023-04-28T17:45:23.837Z,100098.00
2023-04-28T17:48:00.799Z,100099.20
2023-04-28T17:50:34.959Z,100096.60
2023-04-28T17:53:09.593Z,100102.20
2023-04-28T17:55:44.730Z,100099.20
2023-04-28T17:58:21.478Z,100101.60
2023-04-28T18:01:05.027Z,100098.80
2023-04-28T18:03:41.456Z,100099.00
2023-04-28T18:06:17.178Z,100098.40
2023-04-28T18:08:51.448Z,100101.60
2023-04-28T18:11:27.334Z,100106.20
2023-04-28T18:14:02.091Z,100107.80
2023-04-28T18:16:36.378Z,100113.60
2023-04-28T18:19:10.975Z,100108.60
2023-04-28T18:21:45.319Z,100110.20
2023-04-28T18:24:19.738Z,100105.40
2023-04-28T18:26:54.065Z,100110.60
2023-04-28T18:29:28.303Z,100111.20
2023-04-28T18:32:02.768Z,100111.80
2023-04-28T18:34:37.326Z,100106.80
2023-04-28T18:37:12.691Z,100111.80
2023-04-28T18:39:47.010Z,100115.40
2023-04-28T18:42:21.719Z,100117.80
2023-04-28T18:44:59.078Z,100119.40
2023-04-28T18:47:33.390Z,100117.40
2023-04-28T18:50:10.630Z,100117.20
2023-04-28T18:52:45.086Z,100125.20
2023-04-28T18:55:20.038Z,100121.40
2023-04-28T18:57:54.733Z,100122.60
2023-04-28T19:00:29.937Z,100116.80
2023-04-28T19:03:04.448Z,100118.60
2023-04-28T19:05:40.052Z,100111.40
2023-04-28T19:08:14.710Z,100111.40
2023-04-28T19:10:50.484Z,100114.40
2023-04-28T19:13:25.119Z,100115.40
2023-04-28T19:16:00.380Z,100117.00
2023-04-28T19:18:35.353Z,100117.20
2023-04-28T19:21:12.239Z,100113.20
2023-04-28T19:23:47.147Z,100114.60
2023-04-28T19:26:21.683Z,100113.60
2023-04-28T19:28:55.951Z,100117.40
2023-04-28T19:31:30.961Z,100112.20
2023-04-28T19:34:05.748Z,100118.00
2023-04-28T19:36:40.711Z,100123.20
2023-04-28T19:39:15.511Z,100119.60
2023-04-28T19:41:50.828Z,100116.00
2023-04-28T19:44:25.359Z,100117.00
2023-04-28T19:46:59.943Z,100113.20
2023-04-28T19:49:34.728Z,100108.60
2023-04-28T19:52:10.335Z,100115.40
2023-04-28T19:54:45.224Z,100114.80
2023-04-28T19:57:21.023Z,100118.60
2023-04-28T19:59:55.732Z,100116.40
2023-04-28T20:02:30.361Z,100116.00
2023-04-28T20:05:06.006Z,100118.40
2023-04-28T20:07:43.055Z,100121.20
2023-04-28T20:10:18.059Z,100117.60
2023-04-28T20:12:52.636Z,100119.80
2023-04-28T20:15:27.198Z,100122.20
2023-04-28T20:18:01.823Z,100118.40
2023-04-28T20:20:36.642Z,100120.20
2023-04-28T20:23:11.179Z,100117.60
2023-04-28T20:25:46.076Z,100120.80
2023-04-28T20:28:20.788Z,100120.80
2023-04-28T20:30:55.113Z,100122.20
2023-04-28T20:33:29.701Z,100118.20
2023-04-28T20:36:05.542Z,100118.20
2023-04-28T20:38:39.980Z,100115.20
2023-04-28T20:41:14.560Z,100112.20
2023-04-28T20:43:48.885Z,100112.20
2023-04-28T20:46:23.461Z,100116.20
2023-04-28T20:48:57.790Z,100116.00
2023-04-28T20:51:34.247Z,100113.20
2023-04-28T20:54:09.027Z,100115.00
2023-04-28T20:56:43.656Z,100111.40
2023-04-28T20:59:18.055Z,100109.00
2023-04-28T21:01:52.373Z,100107.40
2023-04-28T21:04:26.660Z,100105.80
2023-04-28T21:07:00.927Z,100103.60
2023-04-28T21:09:35.997Z,100100.40
2023-04-28T21:12:11.035Z,100098.00
2023-04-28T21:14:45.388Z,100097.80
2023-04-28T21:17:19.495Z,100094.60
2023-04-28T21:19:55.328Z,100091.80
2023-04-28T21:22:30.077Z,100092.80
2023-04-28T21:25:08.545Z,100094.40
2023-04-28T21:27:42.987Z,100097.60
2023-04-28T21:30:17.556Z,100099.80
2023-04-28T21:32:51.955Z,100099.20
2023-04-28T21:35:26.763Z,100095.20
2023-04-28T21:38:01.288Z,100094.00
2023-04-28T21:40:35.944Z,100095.20
2023-04-28T21:43:11.155Z,100090.20
2023-04-28T21:45:45.559Z,100092.80
2023-04-28T21:48:20.319Z,100092.60
2023-04-28T21:50:55.220Z,100093.00
2023-04-28T21:53:29.956Z,100088.80
2023-04-28T21:56:05.771Z,100087.80
2023-04-28T21:58:40.174Z,100085.80
2023-04-28T22:01:17.129Z,100091.40
2023-04-28T22:03:51.922Z,100087.00
2023-04-28T22:06:26.684Z,100084.60
2023-04-28T22:09:01.553Z,100084.60
2023-04-28T22:11:35.883Z,100085.40
2023-04-28T22:14:11.982Z,100085.60
2023-04-28T22:16:49.816Z,100082.00
2023-04-28T22:19:23.975Z,100087.00
2023-04-28T22:21:58.202Z,100079.60
2023-04-28T22:24:32.707Z,100084.80
2023-04-28T22:27:07.542Z,100080.80
2023-04-28T22:29:42.282Z,100081.00
2023-04-28T22:32:16.684Z,100079.40
2023-04-28T22:34:50.925Z,100081.00
2023-04-28T22:37:25.262Z,100072.40
2023-04-28T22:39:59.542Z,100075.80
2023-04-28T22:42:36.423Z,100070.00
2023-04-28T22:45:13.063Z,100065.20
2023-04-28T22:47:47.571Z,100064.40
2023-04-28T22:50:22.093Z,100064.20
2023-04-28T22:52:56.748Z,100059.40
2023-04-28T22:55:30.962Z,100056.40
2023-04-28T22:58:05.495Z,100056.20
2023-04-28T23:00:39.788Z,100060.00
2023-04-28T23:03:14.159Z,100056.80
2023-04-28T23:05:49.584Z,100056.60
2023-04-28T23:08:23.850Z,100062.00
2023-04-28T23:10:59.414Z,100056.40
2023-04-28T23:13:33.802Z,100057.60
2023-04-28T23:16:09.336Z,100057.20
2023-04-28T23:18:43.693Z,100058.00
2023-04-28T23:21:17.840Z,100055.40
2023-04-28T23:23:52.825Z,100060.80
2023-04-28T23:26:27.229Z,100056.20
2023-04-28T23:29:01.375Z,100054.40
2023-04-28T23:31:39.713Z,100046.20
2023-04-28T23:34:14.530Z,100042.40
2023-04-28T23:36:48.980Z,100043.20
2023-04-28T23:39:23.168Z,100036.60
2023-04-28T23:41:58.799Z,100030.80
2023-04-28T23:44:33.046Z,100029.00
2023-04-28T23:47:07.355Z,100025.40
2023-04-28T23:49:41.476Z,100021.00
2023-04-28T23:52:15.700Z,100025.40
2023-04-28T23:54:50.259Z,100014.00
2023-04-28T23:57:24.479Z,100011.00
2023-04-28T23:59:58.637Z,100008.80
